Kezdőlap
METAR-TAF:

METAR-TAF

Repülőterek :

Miri, Malajzia

földrajzi szélesség: 04-20N, földrajzi hosszúság: 113-59E, magasság: 17 m

Jelenlegi meteorológiai megfigyelések

A jelentés 39 perccel ezelõtt készült, 18:00 UTC
Szélcsend
Hőmérséklet 25°C
Páratartalom 100%
Légköri nyomás 1007 hPa
Látótávolság 10 km, vagy több
Kevés felhő 1600 lábon

METAR: WBGR 241800Z 00000KT 9999 FEW016 25/25 Q1007

Idő: 02:39 (18:39 UTC)

Előrejelzés

A jelentés 1 órával és 39 perccel ezelõtt készült, 17:00 UTC
Az előrejelzés 24-én 18 óra UTC és 25-én 18 óra UTC között érvényes
Dél-délkeleti szél 7 kt
Látótávolság 10 km, vagy több
Kevés felhő 1600 lábon

TAF: WBGR 241700Z 2418/2518 15007KT 9999 FEW016

Meteorológiai megfigyelések és előrejelzések több, mint 4000 repülőtéren (METAR és TAF jelentéseket).

A térképen piros és sárga pontok jelzik az elérhető meteorológiai állomásokat.

Mozgassa az egeret a pont fölött, hogy megjelenjen az állomás neve.

Azután kattintson az időjárási megfigyelések és előrejelzések megtekintéséhez.

A térkép megváltoztatása: kattintson a fekete keresztel jelölt zöld gombra ráközelítéshez, a vonallal jelölt zöld gombra távolításhoz, vagy a zöld nyilakra a szomszédos térképek eléréséhez.


METAR-TAF: